Terminal Aerodrome Forecast
Issued by NWS

Home | Current Version | Previous Version | Text Only | Print | Product List | Glossary Off
Versions: 1 2 3 4 5 6 7 8 9 10 11 12 13 14 15 16 17 18 19 20

000
FTUS43 KGRB 271609 AAA
TAFATW
TAF AMD
KATW 271609Z 2716/2812 VRB04KT P6SM OVC005
     FM272000 04004KT P6SM OVC010
     FM280000 04004KT P6SM OVC007
     FM280400 02004KT P6SM BKN013=

USA.gov is the U.S. government's official web portal to all federal, state and local government web resources and services.